Time;durP1;ratioP1;P1;durP2;ratioP2;P2;SDS_P1;SDS_P2;PMS_P1;PMS_P2;Temp;Humidity;BMP_temperature;BMP_pressure;BME280_temperature;BME280_humidity;BME280_pressure;Samples;Min_cycle;Max_cycle;Signal;HPM_P1;HPM_P2
2022/01/31 00:03:59;;;;;;;4.82;2.40;;;8.60;76.90;;;;;;4962785;28;20031;-82
2022/01/31 00:06:56;;;;;;;4.88;2.40;;;8.60;76.90;;;;;;4970853;28;20051;-81
2022/01/31 00:10:10;;;;;;;3.88;2.40;;;8.60;77.10;;;;;;4938893;28;20062;-83
2022/01/31 00:12:54;;;;;;;3.78;2.35;;;8.60;77.00;;;;;;4957531;28;20068;-83
2022/01/31 00:19:53;;;;;;;4.80;2.80;;;8.60;77.00;;;;;;5015883;28;20450;-82
2022/01/31 00:23:19;;;;;;;5.88;2.75;;;8.60;77.10;;;;;;5004659;28;20122;-82
2022/01/31 00:26:14;;;;;;;5.85;2.88;;;8.50;77.10;;;;;;4996383;28;20041;-81
2022/01/31 00:29:29;;;;;;;4.93;2.70;;;8.60;77.20;;;;;;4999875;28;20164;-82
2022/01/31 00:32:12;;;;;;;4.95;2.70;;;8.60;77.10;;;;;;5004410;28;20096;-83
2022/01/31 00:38:34;;;;;;;5.75;3.10;;;8.50;77.10;;;;;;5002939;28;20033;-83
2022/01/31 00:41:28;;;;;;;5.30;3.15;;;8.60;77.10;;;;;;5018593;28;20995;-81
2022/01/31 00:44:25;;;;;;;4.07;2.88;;;8.50;77.00;;;;;;5024247;28;20128;-82
2022/01/31 00:47:16;;;;;;;4.07;2.60;;;8.50;76.90;;;;;;4995388;28;20073;-82
2022/01/31 00:53:12;;;;;;;4.43;2.65;;;8.60;77.00;;;;;;4963786;28;20102;-82
2022/01/31 00:56:24;;;;;;;6.38;3.05;;;8.60;77.00;;;;;;4992722;28;20046;-82
2022/01/31 00:59:17;;;;;;;4.55;2.83;;;8.50;77.10;;;;;;4941428;29;20445;-83
2022/01/31 01:02:25;;;;;;;5.35;2.72;;;8.50;76.90;;;;;;4937985;29;20083;-81
2022/01/31 01:05:13;;;;;;;4.72;3.08;;;8.50;77.00;;;;;;4939155;29;20346;-82
2022/01/31 01:08:32;;;;;;;4.88;2.72;;;8.60;77.00;;;;;;4924254;29;20505;-81
2022/01/31 01:12:49;;;;;;;5.88;2.65;;;8.50;77.10;;;;;;4915611;29;20048;-81
2022/01/31 01:16:16;;;;;;;4.30;2.70;;;8.50;77.00;;;;;;4923913;29;20119;-83
2022/01/31 01:20:00;;;;;;;4.07;2.57;;;8.50;76.90;;;;;;4943081;29;20103;-81
2022/01/31 01:23:01;;;;;;;4.75;2.92;;;8.50;77.10;;;;;;4963134;28;20778;-81
2022/01/31 01:27:07;;;;;;;3.80;2.65;;;8.50;77.00;;;;;;4952635;28;20065;-81
2022/01/31 01:30:26;;;;;;;4.20;2.75;;;8.50;77.10;;;;;;4981750;28;20048;-81
2022/01/31 01:33:55;;;;;;;4.07;2.55;;;8.50;77.20;;;;;;4960301;28;20395;-82
2022/01/31 01:37:22;;;;;;;4.53;2.67;;;8.40;77.20;;;;;;4937824;29;20079;-82
2022/01/31 01:40:42;;;;;;;4.35;2.58;;;8.50;77.10;;;;;;4957357;28;20102;-80
2022/01/31 01:43:38;;;;;;;4.22;2.95;;;8.40;77.10;;;;;;4947379;28;20504;-81
2022/01/31 01:47:36;;;;;;;3.70;2.53;;;8.40;77.20;;;;;;4979554;28;20042;-80
2022/01/31 01:50:03;;;;;;;5.28;2.80;;;8.50;77.30;;;;;;4949142;28;20068;-80
2022/01/31 01:52:46;;;;;;;4.70;3.00;;;8.40;77.20;;;;;;4965797;28;20117;-80
2022/01/31 01:55:33;;;;;;;5.88;3.17;;;8.40;77.30;;;;;;4978414;28;20149;-80
2022/01/31 01:58:15;;;;;;;4.47;2.85;;;8.40;77.20;;;;;;4973379;28;20096;-80
2022/01/31 02:04:05;;;;;;;;;;;8.50;77.20;;;;;;4969714;28;20416;-79
2022/01/31 02:06:45;;;;;;;4.55;2.83;;;8.40;77.10;;;;;;4959092;28;19918;-79
2022/01/31 02:09:54;;;;;;;5.00;3.03;;;8.40;77.10;;;;;;4954921;28;20380;-78
2022/01/31 02:15:59;;;;;;;4.30;2.80;;;8.40;77.20;;;;;;5020477;28;20578;-81
2022/01/31 02:19:14;;;;;;;4.90;2.67;;;8.40;77.30;;;;;;5009786;28;20041;-80
2022/01/31 02:22:22;;;;;;;3.70;2.58;;;8.40;77.20;;;;;;5018421;28;20187;-80
2022/01/31 02:25:28;;;;;;;4.15;2.80;;;8.40;77.40;;;;;;5013511;28;20095;-80
2022/01/31 02:31:56;;;;;;;4.22;2.60;;;8.30;77.40;;;;;;5000843;28;20087;-83
2022/01/31 02:34:47;;;;;;;4.13;2.70;;;8.40;77.30;;;;;;5020201;28;20030;-80
2022/01/31 02:37:30;;;;;;;2.83;2.42;;;8.40;77.30;;;;;;5001431;28;20049;-81
2022/01/31 02:40:27;;;;;;;3.70;2.35;;;8.40;77.40;;;;;;5017630;28;20038;-79
2022/01/31 02:43:29;;;;;;;4.63;3.05;;;8.30;77.30;;;;;;5010413;28;20076;-79
2022/01/31 02:46:21;;;;;;;3.53;2.70;;;8.40;77.50;;;;;;5015040;28;20492;-79
2022/01/31 02:50:00;;;;;;;5.03;2.63;;;8.40;77.30;;;;;;5019966;28;20125;-79
2022/01/31 02:52:36;;;;;;;4.65;2.72;;;8.30;77.40;;;;;;5019481;28;20026;-79
2022/01/31 02:55:31;;;;;;;4.05;2.80;;;8.30;77.30;;;;;;5014965;28;20049;-79
2022/01/31 02:58:05;;;;;;;5.35;2.78;;;8.30;77.50;;;;;;5019262;28;20042;-79
2022/01/31 03:01:01;;;;;;;3.90;2.70;;;8.30;77.40;;;;;;5014705;28;20049;-79
2022/01/31 03:03:51;;;;;;;4.38;2.70;;;8.40;77.50;;;;;;5019693;28;20096;-80
2022/01/31 03:06:38;;;;;;;4.30;2.70;;;8.30;77.30;;;;;;5000764;28;20057;-80
2022/01/31 03:10:09;;;;;;;4.20;2.42;;;8.30;77.40;;;;;;5021223;28;20136;-80
2022/01/31 03:13:00;;;;;;;4.78;2.60;;;8.30;77.50;;;;;;5020063;28;20087;-80
2022/01/31 03:16:31;;;;;;;4.25;2.40;;;8.30;77.40;;;;;;5020096;28;20068;-80
2022/01/31 03:19:38;;;;;;;4.50;2.38;;;8.30;77.50;;;;;;5019231;28;20053;-80
2022/01/31 03:23:23;;;;;;;3.30;2.20;;;8.30;77.40;;;;;;5016107;28;20038;-80
2022/01/31 03:26:56;;;;;;;3.58;2.50;;;8.30;77.60;;;;;;5016702;28;20053;-80
2022/01/31 03:30:11;;;;;;;3.03;2.30;;;8.30;77.60;;;;;;5019044;28;20034;-80
2022/01/31 03:33:33;;;;;;;2.80;2.00;;;8.30;77.60;;;;;;5002620;28;20176;-82
2022/01/31 03:36:39;;;;;;;3.47;2.38;;;8.30;77.70;;;;;;5015968;28;20183;-80
2022/01/31 03:40:03;;;;;;;2.40;2.03;;;8.30;77.80;;;;;;5001699;28;20030;-80
2022/01/31 03:42:45;;;;;;;3.30;2.22;;;8.30;77.80;;;;;;5018395;28;20061;-80
2022/01/31 03:49:00;;;;;;;3.90;2.35;;;8.30;77.80;;;;;;4992990;28;20474;-79
2022/01/31 03:52:26;;;;;;;3.05;2.00;;;8.30;77.80;;;;;;5001725;28;20069;-80
2022/01/31 03:56:02;;;;;;;3.05;2.00;;;8.30;77.90;;;;;;5016832;28;20095;-79
2022/01/31 03:59:52;;;;;;;3.38;1.88;;;8.30;77.80;;;;;;5010746;28;20398;-80
2022/01/31 04:02:38;;;;;;;4.10;1.90;;;8.30;77.90;;;;;;5011344;28;20041;-80
2022/01/31 04:05:08;;;;;;;4.45;2.00;;;8.30;77.80;;;;;;5025861;28;20040;-79
2022/01/31 04:07:46;;;;;;;3.40;2.10;;;8.30;77.90;;;;;;5005116;28;20046;-79
2022/01/31 04:10:26;;;;;;;2.83;1.80;;;8.40;78.00;;;;;;5000645;28;20042;-79
2022/01/31 04:13:16;;;;;;;4.93;2.08;;;8.40;78.00;;;;;;5027683;28;20033;-81
2022/01/31 04:16:35;;;;;;;4.30;2.03;;;8.40;77.90;;;;;;4986899;28;20083;-84
2022/01/31 04:26:10;;;;;;;3.42;1.80;;;8.40;78.00;;;;;;5013370;28;20037;-80
2022/01/31 04:29:39;;;;;;;4.00;1.80;;;8.40;77.90;;;;;;5026183;28;20069;-79
2022/01/31 04:32:14;;;;;;;2.33;1.73;;;8.40;77.90;;;;;;5013028;28;20041;-81
2022/01/31 04:35:26;;;;;;;2.10;1.63;;;8.40;77.90;;;;;;4995129;28;20128;-79
2022/01/31 04:37:58;;;;;;;3.13;1.58;;;8.40;78.10;;;;;;5020751;28;20045;-79
2022/01/31 04:45:03;;;;;;;4.03;1.70;;;8.50;78.00;;;;;;5018993;28;20052;-79
2022/01/31 04:48:31;;;;;;;3.28;1.50;;;8.50;77.90;;;;;;5024087;28;20060;-79
2022/01/31 04:51:52;;;;;;;2.50;1.42;;;8.50;77.90;;;;;;4990061;28;20124;-79
2022/01/31 04:54:23;;;;;;;2.97;1.48;;;8.50;78.10;;;;;;5007767;28;20054;-79
2022/01/31 05:01:06;;;;;;;4.38;1.80;;;8.40;77.90;;;;;;5025971;28;20040;-79
2022/01/31 05:04:14;;;;;;;2.70;1.45;;;8.50;78.00;;;;;;5014076;28;20046;-81
2022/01/31 05:07:51;;;;;;;2.50;1.40;;;8.50;78.00;;;;;;4998986;28;20038;-79
2022/01/31 05:11:21;;;;;;;1.63;1.20;;;8.50;78.00;;;;;;4984982;28;20042;-79
2022/01/31 05:14:58;;;;;;;2.85;1.42;;;8.50;78.10;;;;;;5011762;28;20445;-79
2022/01/31 05:17:27;;;;;;;;;;;8.50;78.00;;;;;;5020156;28;20042;-78
2022/01/31 05:20:16;;;;;;;2.70;1.45;;;8.50;77.80;;;;;;5003487;28;19905;-79
2022/01/31 05:23:36;;;;;;;4.72;1.77;;;8.50;77.80;;;;;;5009100;28;20045;-79
2022/01/31 05:26:28;;;;;;;2.83;1.55;;;8.50;77.90;;;;;;5006862;28;20125;-79
2022/01/31 05:36:23;;;;;;;4.03;1.50;;;8.50;78.00;;;;;;5001618;28;20172;-80
2022/01/31 05:39:08;;;;;;;3.88;1.60;;;8.50;77.90;;;;;;5004590;28;20064;-79
2022/01/31 05:41:55;;;;;;;3.53;1.60;;;8.50;77.80;;;;;;4998755;28;20050;-80
2022/01/31 05:44:43;;;;;;;2.38;1.63;;;8.60;77.90;;;;;;4987790;28;20103;-78
2022/01/31 05:47:27;;;;;;;4.43;2.22;;;8.60;78.00;;;;;;5031117;28;20076;-78
2022/01/31 05:50:13;;;;;;;3.03;1.60;;;8.60;77.90;;;;;;4997845;28;20080;-79
2022/01/31 05:53:14;;;;;;;4.97;1.80;;;8.60;77.90;;;;;;5005873;28;20140;-77
2022/01/31 05:56:24;;;;;;;4.45;1.50;;;8.60;77.80;;;;;;5023889;28;20040;-78
2022/01/31 05:59:19;;;;;;;4.70;1.70;;;8.60;77.80;;;;;;5021102;28;20033;-78
2022/01/31 06:02:09;;;;;;;2.25;1.30;;;8.60;77.70;;;;;;4975931;28;20045;-78
2022/01/31 06:04:59;;;;;;;4.88;1.75;;;8.60;77.90;;;;;;4997609;28;20041;-79
2022/01/31 06:08:31;;;;;;;4.18;1.52;;;8.60;77.80;;;;;;4989603;28;20399;-78
2022/01/31 06:12:02;;;;;;;2.60;1.40;;;8.60;77.80;;;;;;4990676;28;20046;-78
2022/01/31 06:15:34;;;;;;;2.35;1.40;;;8.60;77.70;;;;;;4969724;28;20372;-79
2022/01/31 06:18:43;;;;;;;3.20;1.30;;;8.60;77.90;;;;;;4956761;28;20053;-78
2022/01/31 06:22:14;;;;;;;2.42;1.23;;;8.60;77.80;;;;;;4969119;28;20034;-80
2022/01/31 06:25:08;;;;;;;2.85;1.42;;;8.60;77.90;;;;;;5008555;28;20490;-79
2022/01/31 06:28:37;;;;;;;3.17;1.30;;;8.60;77.80;;;;;;4994800;28;20414;-79
2022/01/31 06:32:30;;;;;;;2.40;1.13;;;8.60;77.80;;;;;;4963656;28;20735;-79
2022/01/31 06:35:39;;;;;;;2.15;1.13;;;8.60;77.80;;;;;;4988101;28;20065;-79
2022/01/31 06:39:26;;;;;;;1.77;1.00;;;8.60;77.90;;;;;;5000238;28;20038;-80
2022/01/31 06:43:15;;;;;;;2.65;1.20;;;8.60;77.90;;;;;;4963461;28;20422;-79
2022/01/31 06:46:43;;;;;;;1.75;1.25;;;8.60;78.00;;;;;;4965167;28;20047;-78
2022/01/31 06:50:39;;;;;;;1.60;1.08;;;8.50;77.90;;;;;;4947776;28;20043;-80
2022/01/31 06:57:36;;;;;;;4.05;1.60;;;8.50;77.70;;;;;;4973488;28;20134;-78
2022/01/31 07:19:58;;;;;;;3.22;1.33;;;8.50;78.10;;;;;;5046330;28;20090;-79
2022/01/31 07:26:09;;;;;;;3.08;1.30;;;8.40;77.90;;;;;;5007249;28;20083;-80
2022/01/31 07:30:05;;;;;;;3.03;1.50;;;8.50;78.10;;;;;;5024657;28;20483;-79
2022/01/31 07:34:01;;;;;;;3.20;1.70;;;8.50;78.10;;;;;;4942561;29;20456;-79
2022/01/31 07:37:53;;;;;;;2.38;1.20;;;8.50;78.10;;;;;;4949965;28;20046;-78
2022/01/31 07:41:14;;;;;;;2.97;1.65;;;8.50;78.00;;;;;;4948060;29;20403;-79
2022/01/31 07:48:29;;;;;;;2.08;1.30;;;8.50;78.00;;;;;;5008862;28;20094;-78
2022/01/31 07:56:46;;;;;;;3.63;1.38;;;8.50;78.10;;;;;;5016708;28;20040;-79
2022/01/31 08:07:54;;;;;;;4.13;1.20;;;8.40;78.10;;;;;;5018701;28;20120;-79
2022/01/31 08:11:32;;;;;;;3.65;1.38;;;8.40;78.10;;;;;;5021678;28;20169;-79
2022/01/31 08:15:45;;;;;;;5.97;1.45;;;8.40;78.20;;;;;;4949511;28;20065;-79
2022/01/31 08:19:41;;;;;;;4.45;1.50;;;8.40;78.20;;;;;;5039699;28;20107;-79
2022/01/31 08:23:36;;;;;;;4.05;1.45;;;8.50;78.20;;;;;;4990977;28;20033;-79
2022/01/31 08:27:12;;;;;;;2.50;1.30;;;8.40;78.20;;;;;;5024887;28;20063;-80
2022/01/31 08:38:27;;;;;;;3.47;1.42;;;8.40;78.20;;;;;;4967066;28;20756;-79
2022/01/31 08:42:16;;;;;;;3.45;1.52;;;8.40;78.20;;;;;;4920888;29;20111;-80
2022/01/31 08:54:16;;;;;;;2.15;1.30;;;8.40;78.20;;;;;;4980009;28;20133;-80
2022/01/31 09:09:30;;;;;;;3.53;1.75;;;8.40;78.40;;;;;;4906122;29;20066;-81
2022/01/31 09:35:40;;;;;;;7.75;1.70;;;8.40;78.50;;;;;;4965207;28;20170;-79
2022/01/31 09:43:01;;;;;;;4.78;2.00;;;8.40;78.30;;;;;;4956621;28;20090;-81
2022/01/31 09:50:44;;;;;;;5.90;1.95;;;8.40;78.40;;;;;;4934649;29;20065;-79
2022/01/31 09:54:34;;;;;;;4.65;1.95;;;8.50;78.50;;;;;;4939142;29;20142;-81
2022/01/31 09:57:54;;;;;;;5.28;2.03;;;8.50;78.40;;;;;;4958493;28;20041;-80
2022/01/31 10:01:13;;;;;;;5.97;1.92;;;8.50;78.50;;;;;;4915318;29;20048;-80
2022/01/31 10:04:38;;;;;;;4.88;1.58;;;8.50;78.40;;;;;;4820927;29;20053;-79
2022/01/31 10:07:47;;;;;;;4.25;1.67;;;8.50;78.50;;;;;;4937603;29;20141;-79
2022/01/31 10:18:08;;;;;;;7.18;1.95;;;8.50;78.50;;;;;;4918523;29;20540;-79
2022/01/31 10:25:06;;;;;;;7.90;1.95;;;8.50;78.50;;;;;;4934604;29;20513;-82
2022/01/31 10:31:21;;;;;;;6.25;2.10;;;8.60;78.40;;;;;;4941162;28;20096;-80
2022/01/31 10:34:12;;;;;;;7.35;2.60;;;8.60;78.60;;;;;;4954973;28;20382;-80
2022/01/31 10:36:53;;;;;;;4.93;2.10;;;8.60;78.60;;;;;;4970383;28;20046;-82
2022/01/31 10:57:14;;;;;;;8.93;2.08;;;8.60;78.40;;;;;;4999165;28;20040;-79
2022/01/31 11:00:12;;;;;;;5.65;2.40;;;8.70;78.50;;;;;;5001759;28;20037;-80
2022/01/31 11:03:33;;;;;;;5.85;2.33;;;8.60;78.50;;;;;;4997892;28;20045;-79
2022/01/31 11:06:20;;;;;;;7.38;2.47;;;8.70;78.70;;;;;;4980512;28;20062;-79
2022/01/31 11:12:09;;;;;;;7.13;2.17;;;8.70;78.60;;;;;;5023488;28;20025;-80
2022/01/31 11:15:11;;;;;;;7.28;2.25;;;8.70;78.50;;;;;;4955965;28;20046;-79
2022/01/31 11:21:06;;;;;;;4.82;1.88;;;8.70;78.50;;;;;;5013688;28;20113;-79
2022/01/31 11:24:11;;;;;;;4.93;2.03;;;8.80;78.50;;;;;;4987987;28;20034;-80
2022/01/31 11:26:55;;;;;;;7.18;2.50;;;8.80;78.70;;;;;;4994517;28;20050;-79
2022/01/31 11:29:21;;;;;;;4.43;1.98;;;8.80;78.60;;;;;;4975774;28;20029;-79
2022/01/31 11:31:54;;;;;;;8.02;2.55;;;8.80;78.60;;;;;;4977758;28;20026;-80
2022/01/31 11:34:49;;;;;;;5.30;1.92;;;8.80;78.60;;;;;;5003907;28;20049;-80
2022/01/31 11:37:20;;;;;;;3.97;1.75;;;8.80;78.60;;;;;;4998857;28;20029;-79
2022/01/31 11:40:00;;;;;;;6.97;2.13;;;8.80;78.50;;;;;;4996654;28;20026;-79
2022/01/31 11:42:27;;;;;;;4.28;1.90;;;8.90;78.60;;;;;;5003258;28;20026;-81
2022/01/31 11:45:03;;;;;;;5.45;1.70;;;8.80;78.50;;;;;;5000657;28;20422;-78
2022/01/31 11:47:37;;;;;;;5.45;2.03;;;8.90;78.50;;;;;;4998668;28;20091;-79
2022/01/31 11:50:08;;;;;;;6.35;2.15;;;8.90;78.50;;;;;;4993167;28;20029;-80
2022/01/31 11:52:58;;;;;;;4.53;1.80;;;8.90;78.50;;;;;;4968134;28;20132;-79
2022/01/31 11:55:29;;;;;;;4.90;1.98;;;8.90;78.60;;;;;;5005794;28;20121;-79
2022/01/31 11:57:58;;;;;;;6.05;1.80;;;8.90;78.50;;;;;;4978020;28;20517;-81
2022/01/31 12:00:28;;;;;;;6.05;2.10;;;9.00;78.50;;;;;;5001585;28;20026;-79
2022/01/31 12:03:00;;;;;;;4.28;1.90;;;9.00;78.50;;;;;;4990180;28;20060;-80
2022/01/31 12:05:31;;;;;;;5.22;1.98;;;9.00;78.50;;;;;;4994278;28;20030;-81
2022/01/31 12:08:05;;;;;;;5.57;1.90;;;9.00;78.50;;;;;;4996813;28;20042;-81
2022/01/31 12:10:38;;;;;;;7.05;2.10;;;9.00;78.60;;;;;;4986919;28;20049;-80
2022/01/31 12:13:20;;;;;;;5.50;2.13;;;9.00;78.50;;;;;;4996399;28;20029;-78
2022/01/31 12:24:31;;;;;;;5.13;2.20;;;9.00;78.50;;;;;;4997096;28;20044;-80
2022/01/31 12:27:20;;;;;;;6.55;2.10;;;9.00;78.50;;;;;;5006241;28;20072;-78
2022/01/31 12:29:54;;;;;;;4.95;1.80;;;9.00;78.50;;;;;;4998618;28;20037;-78
2022/01/31 12:32:22;;;;;;;7.13;2.08;;;9.00;78.50;;;;;;4992450;28;20030;-79
2022/01/31 12:34:56;;;;;;;5.40;2.28;;;9.00;78.50;;;;;;4992898;28;20049;-79
2022/01/31 12:37:50;;;;;;;8.20;2.50;;;9.00;78.50;;;;;;5009648;28;20363;-81
2022/01/31 12:40:40;;;;;;;5.15;1.85;;;9.00;78.60;;;;;;5005911;28;20030;-81
2022/01/31 12:43:46;;;;;;;7.00;2.55;;;9.10;78.50;;;;;;5021039;28;20500;-81
2022/01/31 12:46:09;;;;;;;8.18;2.17;;;9.10;78.50;;;;;;5025267;28;20048;-78
2022/01/31 12:48:36;;;;;;;4.95;2.20;;;9.10;78.40;;;;;;5008075;28;20076;-78
2022/01/31 12:51:05;;;;;;;5.18;2.08;;;9.10;78.50;;;;;;4996084;28;20058;-81
2022/01/31 12:56:38;;;;;;;5.57;2.00;;;9.10;78.50;;;;;;5039147;28;20056;-79
2022/01/31 12:59:15;;;;;;;4.90;1.90;;;9.10;78.60;;;;;;5013283;28;20072;-79
2022/01/31 13:01:58;;;;;;;;;;;9.10;78.50;;;;;;5035852;28;20031;-80
2022/01/31 13:04:48;;;;;;;4.30;1.85;;;9.10;78.40;;;;;;5028455;28;19909;-80
2022/01/31 13:07:18;;;;;;;6.22;1.98;;;9.10;78.40;;;;;;5024123;28;20041;-78
2022/01/31 13:10:23;;;;;;;6.85;2.67;;;9.10;78.60;;;;;;4990480;28;20497;-77
2022/01/31 13:13:00;;;;;;;5.93;2.13;;;9.10;78.70;;;;;;5028073;28;20112;-77
2022/01/31 13:15:26;;;;;;;7.47;2.58;;;9.10;78.60;;;;;;5022938;28;20032;-80
2022/01/31 13:18:06;;;;;;;7.65;2.10;;;9.10;78.50;;;;;;5025050;28;20116;-79
2022/01/31 13:20:42;;;;;;;5.47;2.20;;;9.10;78.70;;;;;;5019734;28;20553;-80
2022/01/31 13:23:08;;;;;;;5.75;2.03;;;9.20;78.60;;;;;;5040733;28;20022;-81
2022/01/31 13:26:12;;;;;;;4.57;2.10;;;9.10;78.50;;;;;;5002344;28;20029;-78
2022/01/31 13:28:56;;;;;;;6.40;1.83;;;9.20;78.60;;;;;;4941208;28;20146;-80
2022/01/31 13:31:23;;;;;;;;;;;9.20;78.60;;;;;;5025575;28;20037;-79
2022/01/31 13:34:00;;;;;;;4.97;1.80;;;9.20;78.50;;;;;;5028620;28;19924;-79
2022/01/31 13:36:26;;;;;;;8.10;2.47;;;9.20;78.40;;;;;;5023009;28;20025;-82
2022/01/31 13:38:54;;;;;;;5.50;2.17;;;9.20;78.50;;;;;;5017506;28;20028;-78
2022/01/31 13:41:23;;;;;;;7.05;2.20;;;9.20;78.60;;;;;;5009222;28;20049;-78
2022/01/31 13:43:49;;;;;;;7.55;2.42;;;9.20;78.60;;;;;;5015464;28;20021;-81
2022/01/31 13:46:23;;;;;;;6.28;2.42;;;9.20;78.60;;;;;;4993885;28;20033;-79
2022/01/31 13:51:31;;;;;;;4.15;1.98;;;9.20;78.60;;;;;;5007392;28;20327;-79
2022/01/31 13:54:12;;;;;;;7.00;2.20;;;9.20;78.50;;;;;;5020803;28;20045;-80
2022/01/31 13:56:44;;;;;;;5.50;2.30;;;9.20;78.50;;;;;;4994483;28;20033;-83
2022/01/31 13:59:12;;;;;;;8.35;2.60;;;9.20;78.50;;;;;;5024296;28;20029;-80
2022/01/31 14:01:37;;;;;;;7.32;2.20;;;9.20;78.50;;;;;;5012551;28;20392;-81
2022/01/31 14:04:04;;;;;;;6.90;2.20;;;9.20;78.50;;;;;;5009565;28;20453;-80
2022/01/31 14:06:34;;;;;;;5.85;2.15;;;9.20;78.50;;;;;;5025426;28;20038;-80
2022/01/31 14:09:03;;;;;;;6.93;2.28;;;9.30;78.60;;;;;;5028032;28;20124;-81
2022/01/31 14:11:44;;;;;;;5.75;2.25;;;9.20;78.50;;;;;;5008672;28;20033;-79
2022/01/31 14:14:11;;;;;;;8.27;2.63;;;9.30;78.60;;;;;;5030244;28;20046;-80
2022/01/31 14:16:39;;;;;;;7.13;2.42;;;9.30;78.50;;;;;;5009655;28;20685;-79
2022/01/31 14:19:13;;;;;;;8.93;2.50;;;9.30;78.50;;;;;;5015325;28;20032;-79
2022/01/31 14:21:46;;;;;;;10.18;2.72;;;9.30;78.50;;;;;;5015350;28;20032;-80
2022/01/31 14:24:14;;;;;;;8.77;3.03;;;9.30;78.60;;;;;;5000044;28;20029;-82
2022/01/31 14:27:05;;;;;;;8.07;3.08;;;9.30;78.50;;;;;;5012763;28;20046;-79
2022/01/31 14:29:41;;;;;;;6.13;2.35;;;9.30;78.60;;;;;;5023856;28;20029;-78
2022/01/31 14:32:27;;;;;;;7.20;2.20;;;9.30;78.50;;;;;;5007121;28;20458;-79
2022/01/31 14:35:12;;;;;;;6.45;2.78;;;9.30;78.50;;;;;;5028229;28;20041;-79
2022/01/31 14:37:50;;;;;;;8.20;3.03;;;9.30;78.40;;;;;;5038049;28;20031;-80
2022/01/31 14:40:26;;;;;;;5.35;2.05;;;9.30;78.60;;;;;;5010745;28;20021;-80
2022/01/31 14:43:14;;;;;;;6.40;2.25;;;9.30;78.60;;;;;;4979894;28;20143;-80
2022/01/31 14:48:38;;;;;;;5.85;1.77;;;9.30;78.50;;;;;;4993721;28;20041;-77
2022/01/31 14:51:04;;;;;;;5.13;2.10;;;9.30;78.50;;;;;;5017399;28;20035;-80
2022/01/31 14:53:29;;;;;;;5.53;1.95;;;9.30;78.50;;;;;;5005005;28;20421;-80
2022/01/31 14:55:58;;;;;;;5.55;2.08;;;9.30;78.50;;;;;;5018130;28;20025;-80
2022/01/31 14:58:24;;;;;;;5.22;2.10;;;9.30;78.60;;;;;;5016986;28;20024;-79
2022/01/31 15:00:50;;;;;;;3.85;1.80;;;9.30;78.50;;;;;;5020677;28;20025;-80
2022/01/31 15:03:19;;;;;;;5.22;2.00;;;9.30;78.50;;;;;;4981987;28;20119;-83
2022/01/31 15:05:52;;;;;;;5.95;1.80;;;9.30;78.50;;;;;;5041392;28;20180;-81
2022/01/31 15:08:17;;;;;;;5.22;2.00;;;9.30;78.50;;;;;;5010587;28;20037;-81
2022/01/31 15:10:47;;;;;;;4.32;1.80;;;9.30;79.10;;;;;;4999709;28;20048;-81
2022/01/31 15:13:31;;;;;;;5.25;1.70;;;9.30;78.50;;;;;;5001410;28;20175;-81
2022/01/31 15:16:05;;;;;;;4.80;1.65;;;9.30;78.40;;;;;;5006669;28;20112;-83
2022/01/31 15:18:31;;;;;;;4.53;1.92;;;9.30;79.10;;;;;;5023122;28;20496;-81
2022/01/31 15:21:00;;;;;;;3.08;1.65;;;9.30;78.50;;;;;;5001773;28;20037;-85
2022/01/31 15:23:33;;;;;;;3.65;1.52;;;9.30;78.50;;;;;;5012820;28;20439;-80
2022/01/31 15:25:59;;;;;;;3.13;1.50;;;9.30;78.50;;;;;;5013531;28;20026;-82
2022/01/31 15:28:24;;;;;;;5.60;1.65;;;9.30;78.50;;;;;;5010010;28;20464;-83
2022/01/31 15:30:50;;;;;;;4.20;1.60;;;9.30;78.50;;;;;;5014910;28;20131;-80
2022/01/31 15:33:17;;;;;;;3.50;1.60;;;9.30;78.50;;;;;;5012035;28;20378;-80
2022/01/31 15:35:44;;;;;;;3.75;1.55;;;9.30;78.50;;;;;;5003927;28;20076;-81
2022/01/31 15:38:12;;;;;;;3.63;2.08;;;9.30;78.50;;;;;;5035582;28;20465;-80
2022/01/31 15:40:38;;;;;;;4.40;1.60;;;9.30;78.50;;;;;;4997110;28;20033;-80
2022/01/31 15:43:05;;;;;;;4.57;1.77;;;9.30;78.50;;;;;;5015759;28;20082;-79
2022/01/31 15:45:51;;;;;;;2.90;1.30;;;9.30;78.50;;;;;;5012061;28;20040;-81
2022/01/31 15:48:17;;;;;;;4.80;1.67;;;9.30;78.60;;;;;;5000773;28;20048;-79
2022/01/31 15:50:44;;;;;;;2.83;1.33;;;9.30;78.40;;;;;;5014603;28;20116;-79
2022/01/31 15:53:10;;;;;;;2.13;1.40;;;9.30;78.50;;;;;;5023581;28;20051;-79
2022/01/31 15:55:42;;;;;;;4.97;1.55;;;9.30;78.40;;;;;;5005084;28;20029;-82
2022/01/31 15:58:13;;;;;;;4.90;2.10;;;9.30;78.50;;;;;;4992909;28;20053;-82
2022/01/31 16:00:41;;;;;;;5.53;2.03;;;9.30;78.50;;;;;;4998139;28;20033;-79
2022/01/31 16:03:10;;;;;;;5.20;1.80;;;9.30;78.40;;;;;;4980427;28;20131;-81
2022/01/31 16:05:37;;;;;;;5.60;1.40;;;9.30;78.50;;;;;;4993928;28;20455;-80
2022/01/31 16:08:05;;;;;;;6.78;2.08;;;9.30;78.40;;;;;;4967724;28;20033;-80
2022/01/31 16:10:31;;;;;;;5.22;1.75;;;9.30;78.50;;;;;;5014509;28;20053;-79
2022/01/31 16:13:03;;;;;;;5.80;1.83;;;9.30;78.50;;;;;;5011563;28;20512;-87
2022/01/31 16:15:34;;;;;;;6.25;1.63;;;9.30;78.50;;;;;;4975192;28;20610;-80
2022/01/31 16:18:01;;;;;;;4.40;2.00;;;9.30;78.50;;;;;;5005115;28;20049;-79
2022/01/31 16:20:29;;;;;;;6.88;2.20;;;9.30;78.50;;;;;;4995008;28;20053;-80
2022/01/31 16:22:55;;;;;;;5.90;1.88;;;9.30;78.50;;;;;;4987298;28;20030;-81
2022/01/31 16:25:27;;;;;;;4.20;1.65;;;9.30;78.50;;;;;;4998107;28;20359;-79
2022/01/31 16:27:55;;;;;;;3.97;1.90;;;9.30;78.50;;;;;;4984739;28;20032;-80
2022/01/31 16:30:24;;;;;;;4.20;1.92;;;9.30;78.50;;;;;;4995490;28;20048;-80
2022/01/31 16:32:52;;;;;;;4.22;1.90;;;9.30;78.40;;;;;;4994122;28;20090;-78
2022/01/31 16:35:19;;;;;;;5.30;1.90;;;9.30;78.50;;;;;;4977212;28;20064;-78
2022/01/31 16:37:45;;;;;;;3.65;1.50;;;9.30;78.50;;;;;;4981535;28;20034;-79
2022/01/31 16:40:19;;;;;;;4.80;1.70;;;9.30;78.50;;;;;;5005029;28;20033;-79
2022/01/31 16:42:45;;;;;;;4.40;1.95;;;9.30;78.50;;;;;;5005283;28;20433;-79
2022/01/31 16:45:12;;;;;;;4.57;1.70;;;9.30;78.40;;;;;;4987365;28;21268;-78
2022/01/31 16:47:46;;;;;;;2.65;1.40;;;9.30;78.50;;;;;;5005373;28;20030;-78
2022/01/31 16:50:17;;;;;;;3.45;1.50;;;9.30;78.50;;;;;;5008596;28;20045;-78
2022/01/31 16:52:42;;;;;;;4.65;1.73;;;9.30;79.00;;;;;;4971402;28;20030;-78
2022/01/31 16:55:11;;;;;;;7.15;1.90;;;9.20;78.30;;;;;;5003113;28;20406;-78
2022/01/31 16:57:49;;;;;;;6.45;2.90;;;9.20;78.40;;;;;;5008173;28;20030;-78
2022/01/31 17:00:15;;;;;;;5.25;1.88;;;9.20;78.50;;;;;;4997337;28;20034;-79
2022/01/31 17:02:42;;;;;;;2.83;1.50;;;9.20;78.40;;;;;;5016000;28;20030;-79
2022/01/31 17:05:08;;;;;;;4.10;1.50;;;9.20;78.40;;;;;;4990715;28;20106;-78
2022/01/31 17:07:34;;;;;;;5.35;1.90;;;9.20;78.40;;;;;;5016056;28;21108;-79
2022/01/31 17:10:00;;;;;;;5.78;2.03;;;9.20;78.40;;;;;;5013147;28;20057;-80
2022/01/31 17:12:27;;;;;;;5.95;1.77;;;9.20;78.40;;;;;;4990785;28;20030;-78
2022/01/31 17:14:54;;;;;;;6.07;1.77;;;9.20;78.40;;;;;;4993694;28;20037;-78
2022/01/31 17:17:19;;;;;;;4.55;1.80;;;9.20;78.30;;;;;;5021002;28;20064;-82
2022/01/31 17:19:45;;;;;;;5.85;1.85;;;9.20;78.30;;;;;;5027195;28;20065;-78
2022/01/31 17:22:11;;;;;;;5.05;1.60;;;9.20;78.30;;;;;;5012844;28;20033;-78
2022/01/31 17:24:37;;;;;;;5.25;1.90;;;9.20;78.30;;;;;;4995293;28;20034;-80
2022/01/31 17:27:03;;;;;;;4.25;1.83;;;9.20;78.30;;;;;;5028862;28;20140;-86
2022/01/31 17:29:29;;;;;;;6.43;2.03;;;9.20;78.30;;;;;;5021362;28;20026;-78
2022/01/31 17:31:54;;;;;;;6.03;1.63;;;9.20;78.30;;;;;;5010654;28;20038;-78
2022/01/31 17:34:20;;;;;;;5.10;2.10;;;9.20;78.30;;;;;;5015493;28;20380;-79
2022/01/31 17:36:46;;;;;;;3.85;1.50;;;9.20;78.30;;;;;;4990943;28;20034;-80
2022/01/31 17:39:12;;;;;;;6.25;2.05;;;9.20;78.30;;;;;;5004786;28;20053;-80
2022/01/31 17:41:41;;;;;;;4.93;2.20;;;9.10;78.20;;;;;;5016205;28;20049;-83
2022/01/31 17:44:20;;;;;;;5.68;2.25;;;9.20;78.30;;;;;;5012042;28;20119;-78
2022/01/31 17:46:47;;;;;;;4.88;1.88;;;9.20;78.30;;;;;;5008674;28;20763;-81
2022/01/31 17:49:13;;;;;;;4.78;1.67;;;9.10;78.20;;;;;;4997800;28;20034;-78
2022/01/31 17:51:39;;;;;;;4.65;2.10;;;9.10;78.20;;;;;;5011249;28;20026;-79
2022/01/31 17:54:05;;;;;;;4.68;1.90;;;9.10;78.20;;;;;;5010584;28;20442;-86
2022/01/31 17:56:32;;;;;;;3.88;1.75;;;9.10;78.20;;;;;;5016591;28;20080;-79
2022/01/31 17:59:00;;;;;;;3.97;1.80;;;9.10;78.20;;;;;;5020439;28;20038;-78
2022/01/31 18:01:27;;;;;;;6.47;1.90;;;9.10;78.20;;;;;;5015328;28;20053;-78
2022/01/31 18:03:53;;;;;;;7.43;2.13;;;9.10;78.20;;;;;;5014922;28;20119;-78
2022/01/31 18:06:18;;;;;;;5.60;1.80;;;9.10;78.20;;;;;;5010205;28;20048;-78
2022/01/31 18:08:44;;;;;;;5.03;1.90;;;9.10;78.10;;;;;;5006630;28;20074;-79
2022/01/31 18:11:10;;;;;;;7.22;2.10;;;9.10;78.10;;;;;;5013793;28;20120;-81
2022/01/31 18:13:36;;;;;;;6.38;1.92;;;9.10;78.20;;;;;;5005570;28;20504;-78
2022/01/31 18:16:02;;;;;;;6.03;2.17;;;9.00;78.70;;;;;;5012343;28;20091;-80
2022/01/31 18:18:28;;;;;;;6.95;2.25;;;9.10;78.10;;;;;;5012175;28;20045;-80
2022/01/31 18:20:53;;;;;;;4.78;1.98;;;9.00;78.00;;;;;;5001665;28;20022;-78
2022/01/31 18:23:20;;;;;;;6.75;2.17;;;9.00;78.00;;;;;;5012735;28;20040;-79
2022/01/31 18:25:46;;;;;;;6.57;1.95;;;9.00;78.00;;;;;;5020408;28;20072;-78